sensor_id;sensor_type;location;lat;lon;timestamp;P1;durP1;ratioP1;P2;durP2;ratioP2
3979;SDS011;2004;52.452;13.120;2024-01-15T00:04:06;204.73;;;17.83;;
3979;SDS011;2004;52.452;13.120;2024-01-15T00:12:19;214.27;;;18.13;;
3979;SDS011;2004;52.452;13.120;2024-01-15T00:20:15;206.43;;;19.13;;
3979;SDS011;2004;52.452;13.120;2024-01-15T00:28:09;202.87;;;17.50;;
3979;SDS011;2004;52.452;13.120;2024-01-15T00:36:02;204.43;;;15.10;;
3979;SDS011;2004;52.452;13.120;2024-01-15T00:43:56;203.27;;;17.40;;
3979;SDS011;2004;52.452;13.120;2024-01-15T00:51:49;200.47;;;16.27;;
3979;SDS011;2004;52.452;13.120;2024-01-15T00:59:42;199.83;;;16.27;;
3979;SDS011;2004;52.452;13.120;2024-01-15T01:07:37;200.57;;;16.50;;
3979;SDS011;2004;52.452;13.120;2024-01-15T01:15:30;205.27;;;17.10;;
3979;SDS011;2004;52.452;13.120;2024-01-15T01:23:44;211.53;;;17.90;;
3979;SDS011;2004;52.452;13.120;2024-01-15T01:31:46;222.80;;;24.67;;
3979;SDS011;2004;52.452;13.120;2024-01-15T01:39:40;209.40;;;18.97;;
3979;SDS011;2004;52.452;13.120;2024-01-15T01:47:55;209.07;;;18.97;;
3979;SDS011;2004;52.452;13.120;2024-01-15T01:55:54;211.00;;;20.30;;
3979;SDS011;2004;52.452;13.120;2024-01-15T02:03:48;202.37;;;15.10;;
3979;SDS011;2004;52.452;13.120;2024-01-15T02:11:51;204.73;;;18.60;;
3979;SDS011;2004;52.452;13.120;2024-01-15T02:19:47;204.77;;;17.07;;
3979;SDS011;2004;52.452;13.120;2024-01-15T02:27:38;201.80;;;15.93;;
3979;SDS011;2004;52.452;13.120;2024-01-15T02:35:30;201.97;;;16.67;;
3979;SDS011;2004;52.452;13.120;2024-01-15T02:43:26;201.77;;;15.80;;
3979;SDS011;2004;52.452;13.120;2024-01-15T02:51:22;199.23;;;16.37;;
3979;SDS011;2004;52.452;13.120;2024-01-15T02:59:33;198.73;;;14.80;;
3979;SDS011;2004;52.452;13.120;2024-01-15T03:07:24;206.00;;;16.40;;
3979;SDS011;2004;52.452;13.120;2024-01-15T03:15:21;201.60;;;15.70;;
3979;SDS011;2004;52.452;13.120;2024-01-15T03:23:14;200.23;;;15.17;;
3979;SDS011;2004;52.452;13.120;2024-01-15T03:31:07;203.73;;;14.80;;
3979;SDS011;2004;52.452;13.120;2024-01-15T03:39:00;197.07;;;14.10;;
3979;SDS011;2004;52.452;13.120;2024-01-15T03:46:58;198.50;;;13.30;;
3979;SDS011;2004;52.452;13.120;2024-01-15T03:54:55;196.33;;;13.17;;
3979;SDS011;2004;52.452;13.120;2024-01-15T04:02:51;197.73;;;13.13;;
3979;SDS011;2004;52.452;13.120;2024-01-15T04:10:48;195.13;;;13.67;;
3979;SDS011;2004;52.452;13.120;2024-01-15T04:18:44;196.57;;;13.50;;
3979;SDS011;2004;52.452;13.120;2024-01-15T04:26:36;194.83;;;11.97;;
3979;SDS011;2004;52.452;13.120;2024-01-15T04:34:32;193.17;;;11.70;;
3979;SDS011;2004;52.452;13.120;2024-01-15T04:42:35;195.10;;;11.63;;
3979;SDS011;2004;52.452;13.120;2024-01-15T04:50:28;197.83;;;11.43;;
3979;SDS011;2004;52.452;13.120;2024-01-15T04:58:22;191.37;;;10.47;;
3979;SDS011;2004;52.452;13.120;2024-01-15T05:06:18;192.60;;;10.10;;
3979;SDS011;2004;52.452;13.120;2024-01-15T05:14:11;200.97;;;11.17;;
3979;SDS011;2004;52.452;13.120;2024-01-15T05:22:09;190.57;;;9.97;;
3979;SDS011;2004;52.452;13.120;2024-01-15T05:29:59;192.30;;;9.77;;
3979;SDS011;2004;52.452;13.120;2024-01-15T05:37:57;196.90;;;10.40;;
3979;SDS011;2004;52.452;13.120;2024-01-15T05:46:05;198.40;;;10.67;;
3979;SDS011;2004;52.452;13.120;2024-01-15T05:53:56;197.27;;;11.07;;
3979;SDS011;2004;52.452;13.120;2024-01-15T06:01:46;190.50;;;9.73;;
3979;SDS011;2004;52.452;13.120;2024-01-15T06:09:40;195.37;;;10.00;;
3979;SDS011;2004;52.452;13.120;2024-01-15T06:18:00;199.93;;;10.60;;
3979;SDS011;2004;52.452;13.120;2024-01-15T06:34:28;188.60;;;9.00;;
3979;SDS011;2004;52.452;13.120;2024-01-15T06:42:27;197.90;;;10.37;;
3979;SDS011;2004;52.452;13.120;2024-01-15T06:50:20;205.87;;;10.13;;
3979;SDS011;2004;52.452;13.120;2024-01-15T06:58:25;189.53;;;9.33;;
3979;SDS011;2004;52.452;13.120;2024-01-15T07:06:35;197.10;;;9.30;;
3979;SDS011;2004;52.452;13.120;2024-01-15T07:14:26;190.33;;;9.17;;
3979;SDS011;2004;52.452;13.120;2024-01-15T07:22:30;189.80;;;9.10;;
3979;SDS011;2004;52.452;13.120;2024-01-15T07:39:44;193.60;;;9.93;;
3979;SDS011;2004;52.452;13.120;2024-01-15T07:47:39;205.90;;;9.57;;
3979;SDS011;2004;52.452;13.120;2024-01-15T07:55:37;202.53;;;10.20;;
3979;SDS011;2004;52.452;13.120;2024-01-15T08:03:37;199.07;;;10.17;;
3979;SDS011;2004;52.452;13.120;2024-01-15T08:11:41;202.83;;;10.30;;
3979;SDS011;2004;52.452;13.120;2024-01-15T08:19:39;188.97;;;9.10;;
3979;SDS011;2004;52.452;13.120;2024-01-15T08:27:46;189.20;;;8.60;;
3979;SDS011;2004;52.452;13.120;2024-01-15T08:35:49;187.47;;;8.60;;
3979;SDS011;2004;52.452;13.120;2024-01-15T08:43:54;192.20;;;9.23;;
3979;SDS011;2004;52.452;13.120;2024-01-15T08:52:02;202.43;;;10.00;;
3979;SDS011;2004;52.452;13.120;2024-01-15T09:00:39;195.60;;;10.27;;
3979;SDS011;2004;52.452;13.120;2024-01-15T09:08:20;195.60;;;9.50;;
3979;SDS011;2004;52.452;13.120;2024-01-15T09:16:57;198.47;;;10.13;;
3979;SDS011;2004;52.452;13.120;2024-01-15T09:25:03;195.40;;;9.50;;
3979;SDS011;2004;52.452;13.120;2024-01-15T09:32:54;198.60;;;9.80;;
3979;SDS011;2004;52.452;13.120;2024-01-15T09:40:47;193.00;;;10.03;;
3979;SDS011;2004;52.452;13.120;2024-01-15T09:48:41;191.63;;;9.00;;
3979;SDS011;2004;52.452;13.120;2024-01-15T09:56:38;193.27;;;8.90;;
3979;SDS011;2004;52.452;13.120;2024-01-15T10:04:36;186.67;;;8.80;;
3979;SDS011;2004;52.452;13.120;2024-01-15T10:12:27;187.50;;;8.77;;
3979;SDS011;2004;52.452;13.120;2024-01-15T10:20:28;189.43;;;9.40;;
3979;SDS011;2004;52.452;13.120;2024-01-15T10:28:26;191.43;;;9.00;;
3979;SDS011;2004;52.452;13.120;2024-01-15T10:36:20;193.40;;;8.70;;
3979;SDS011;2004;52.452;13.120;2024-01-15T10:44:10;185.07;;;8.20;;
3979;SDS011;2004;52.452;13.120;2024-01-15T10:52:03;185.77;;;8.70;;
3979;SDS011;2004;52.452;13.120;2024-01-15T11:00:01;185.47;;;8.30;;
3979;SDS011;2004;52.452;13.120;2024-01-15T11:08:07;185.93;;;8.70;;
3979;SDS011;2004;52.452;13.120;2024-01-15T11:16:01;187.37;;;8.67;;
3979;SDS011;2004;52.452;13.120;2024-01-15T11:23:59;188.43;;;9.30;;
3979;SDS011;2004;52.452;13.120;2024-01-15T11:40:09;189.30;;;9.00;;
3979;SDS011;2004;52.452;13.120;2024-01-15T11:48:09;187.37;;;9.20;;
3979;SDS011;2004;52.452;13.120;2024-01-15T11:56:15;191.17;;;9.73;;
3979;SDS011;2004;52.452;13.120;2024-01-15T12:04:07;190.27;;;8.73;;
3979;SDS011;2004;52.452;13.120;2024-01-15T12:12:09;189.73;;;9.53;;
3979;SDS011;2004;52.452;13.120;2024-01-15T12:20:06;186.57;;;8.57;;
3979;SDS011;2004;52.452;13.120;2024-01-15T12:28:01;189.37;;;9.00;;
3979;SDS011;2004;52.452;13.120;2024-01-15T12:35:55;187.47;;;8.43;;
3979;SDS011;2004;52.452;13.120;2024-01-15T12:43:46;192.67;;;8.70;;
3979;SDS011;2004;52.452;13.120;2024-01-15T12:51:37;200.47;;;9.93;;
3979;SDS011;2004;52.452;13.120;2024-01-15T12:59:33;188.47;;;8.80;;
3979;SDS011;2004;52.452;13.120;2024-01-15T13:07:30;189.70;;;9.10;;
3979;SDS011;2004;52.452;13.120;2024-01-15T13:15:27;189.57;;;8.90;;
3979;SDS011;2004;52.452;13.120;2024-01-15T13:23:18;192.30;;;10.07;;
3979;SDS011;2004;52.452;13.120;2024-01-15T13:31:13;191.00;;;9.80;;
3979;SDS011;2004;52.452;13.120;2024-01-15T13:39:05;190.43;;;9.30;;
3979;SDS011;2004;52.452;13.120;2024-01-15T13:47:05;194.37;;;10.53;;
3979;SDS011;2004;52.452;13.120;2024-01-15T13:55:02;197.03;;;10.20;;
3979;SDS011;2004;52.452;13.120;2024-01-15T14:03:10;191.70;;;9.77;;
3979;SDS011;2004;52.452;13.120;2024-01-15T14:11:10;205.63;;;10.37;;
3979;SDS011;2004;52.452;13.120;2024-01-15T14:19:15;191.77;;;9.70;;
3979;SDS011;2004;52.452;13.120;2024-01-15T14:27:10;195.37;;;9.80;;
3979;SDS011;2004;52.452;13.120;2024-01-15T14:35:12;191.83;;;9.20;;
3979;SDS011;2004;52.452;13.120;2024-01-15T14:43:26;191.27;;;9.40;;
3979;SDS011;2004;52.452;13.120;2024-01-15T14:51:27;192.57;;;9.60;;
3979;SDS011;2004;52.452;13.120;2024-01-15T14:59:22;187.63;;;8.67;;
3979;SDS011;2004;52.452;13.120;2024-01-15T15:07:16;194.37;;;9.37;;
3979;SDS011;2004;52.452;13.120;2024-01-15T15:15:06;192.70;;;8.33;;
3979;SDS011;2004;52.452;13.120;2024-01-15T15:23:13;192.37;;;9.77;;
3979;SDS011;2004;52.452;13.120;2024-01-15T15:31:05;189.73;;;8.90;;
3979;SDS011;2004;52.452;13.120;2024-01-15T15:38:58;192.63;;;9.70;;
3979;SDS011;2004;52.452;13.120;2024-01-15T15:47:01;189.87;;;9.20;;
3979;SDS011;2004;52.452;13.120;2024-01-15T15:54:53;191.13;;;9.20;;
3979;SDS011;2004;52.452;13.120;2024-01-15T16:03:02;194.17;;;9.63;;
3979;SDS011;2004;52.452;13.120;2024-01-15T16:10:56;193.03;;;9.70;;
3979;SDS011;2004;52.452;13.120;2024-01-15T16:19:00;192.17;;;9.40;;
3979;SDS011;2004;52.452;13.120;2024-01-15T16:27:00;189.17;;;9.40;;
3979;SDS011;2004;52.452;13.120;2024-01-15T16:34:51;190.07;;;9.20;;
3979;SDS011;2004;52.452;13.120;2024-01-15T16:42:46;193.03;;;9.37;;
3979;SDS011;2004;52.452;13.120;2024-01-15T16:50:41;193.43;;;9.40;;
3979;SDS011;2004;52.452;13.120;2024-01-15T16:58:31;195.27;;;9.73;;
3979;SDS011;2004;52.452;13.120;2024-01-15T17:06:24;198.87;;;10.10;;
3979;SDS011;2004;52.452;13.120;2024-01-15T17:14:15;192.50;;;9.20;;
3979;SDS011;2004;52.452;13.120;2024-01-15T17:22:07;202.87;;;10.70;;
3979;SDS011;2004;52.452;13.120;2024-01-15T17:29:58;190.77;;;9.07;;
3979;SDS011;2004;52.452;13.120;2024-01-15T17:37:49;189.77;;;9.10;;
3979;SDS011;2004;52.452;13.120;2024-01-15T17:45:52;188.57;;;9.37;;
3979;SDS011;2004;52.452;13.120;2024-01-15T17:54:27;189.53;;;9.53;;
3979;SDS011;2004;52.452;13.120;2024-01-15T18:02:29;191.40;;;10.07;;
3979;SDS011;2004;52.452;13.120;2024-01-15T18:10:22;191.77;;;9.87;;
3979;SDS011;2004;52.452;13.120;2024-01-15T18:18:13;191.23;;;10.40;;
3979;SDS011;2004;52.452;13.120;2024-01-15T18:26:06;194.40;;;10.90;;
3979;SDS011;2004;52.452;13.120;2024-01-15T18:34:21;195.87;;;11.73;;
3979;SDS011;2004;52.452;13.120;2024-01-15T18:42:21;196.83;;;12.00;;
3979;SDS011;2004;52.452;13.120;2024-01-15T18:50:21;201.60;;;12.30;;
3979;SDS011;2004;52.452;13.120;2024-01-15T18:58:25;196.23;;;12.43;;
3979;SDS011;2004;52.452;13.120;2024-01-15T19:06:24;195.27;;;11.83;;
3979;SDS011;2004;52.452;13.120;2024-01-15T19:14:17;197.63;;;12.27;;
3979;SDS011;2004;52.452;13.120;2024-01-15T19:22:13;196.87;;;12.13;;
3979;SDS011;2004;52.452;13.120;2024-01-15T19:30:12;201.67;;;12.10;;
3979;SDS011;2004;52.452;13.120;2024-01-15T19:38:04;199.10;;;12.63;;
3979;SDS011;2004;52.452;13.120;2024-01-15T19:45:57;192.27;;;10.63;;
3979;SDS011;2004;52.452;13.120;2024-01-15T19:53:47;192.40;;;10.73;;
3979;SDS011;2004;52.452;13.120;2024-01-15T20:01:38;193.07;;;10.30;;
3979;SDS011;2004;52.452;13.120;2024-01-15T20:09:32;195.67;;;10.90;;
3979;SDS011;2004;52.452;13.120;2024-01-15T20:17:24;192.87;;;10.50;;
3979;SDS011;2004;52.452;13.120;2024-01-15T20:25:17;195.17;;;10.13;;
3979;SDS011;2004;52.452;13.120;2024-01-15T20:33:09;190.80;;;9.60;;
3979;SDS011;2004;52.452;13.120;2024-01-15T20:41:03;192.93;;;9.67;;
3979;SDS011;2004;52.452;13.120;2024-01-15T20:48:55;192.97;;;9.60;;
3979;SDS011;2004;52.452;13.120;2024-01-15T20:56:55;191.07;;;9.13;;
3979;SDS011;2004;52.452;13.120;2024-01-15T21:04:59;192.17;;;9.37;;
3979;SDS011;2004;52.452;13.120;2024-01-15T21:12:52;192.37;;;10.37;;
3979;SDS011;2004;52.452;13.120;2024-01-15T21:21:01;193.20;;;10.03;;
3979;SDS011;2004;52.452;13.120;2024-01-15T21:29:03;192.37;;;9.97;;
3979;SDS011;2004;52.452;13.120;2024-01-15T21:36:57;195.63;;;10.40;;
3979;SDS011;2004;52.452;13.120;2024-01-15T21:44:48;190.97;;;10.10;;
3979;SDS011;2004;52.452;13.120;2024-01-15T21:52:39;191.87;;;9.90;;
3979;SDS011;2004;52.452;13.120;2024-01-15T22:00:31;200.53;;;10.10;;
3979;SDS011;2004;52.452;13.120;2024-01-15T22:08:30;189.23;;;9.30;;
3979;SDS011;2004;52.452;13.120;2024-01-15T22:16:21;188.43;;;9.30;;
3979;SDS011;2004;52.452;13.120;2024-01-15T22:24:11;193.17;;;10.20;;
3979;SDS011;2004;52.452;13.120;2024-01-15T22:32:02;187.97;;;9.57;;
3979;SDS011;2004;52.452;13.120;2024-01-15T22:39:53;187.27;;;9.40;;
3979;SDS011;2004;52.452;13.120;2024-01-15T22:47:43;190.07;;;9.10;;
3979;SDS011;2004;52.452;13.120;2024-01-15T22:55:35;189.00;;;9.50;;
3979;SDS011;2004;52.452;13.120;2024-01-15T23:03:26;192.53;;;9.93;;
3979;SDS011;2004;52.452;13.120;2024-01-15T23:11:16;193.87;;;9.53;;
3979;SDS011;2004;52.452;13.120;2024-01-15T23:19:07;191.30;;;9.87;;
3979;SDS011;2004;52.452;13.120;2024-01-15T23:26:57;186.57;;;9.07;;
3979;SDS011;2004;52.452;13.120;2024-01-15T23:34:48;191.20;;;10.43;;
3979;SDS011;2004;52.452;13.120;2024-01-15T23:42:39;196.37;;;11.70;;
3979;SDS011;2004;52.452;13.120;2024-01-15T23:50:29;194.93;;;9.67;;
3979;SDS011;2004;52.452;13.120;2024-01-15T23:58:20;192.20;;;9.57;;
